Time,TemperatureF,DewpointF,PressureIn,WindDirection,WindDirectionDegrees,WindSpeedMPH,WindSpeedGustMPH,Humidity,HourlyPrecipIn,Conditions,Clouds,dailyrainin,SolarRadiationWatts/m^2,SoftwareType,DateUTC
2013-04-02 00:02:00,35.0,19.0,-100.00,NW,310,19.0,42.0,50,0.00,,,0.00,0.800000,,2013-04-02 08:02:00,
2013-04-02 00:12:00,35.0,19.0,-100.00,NW,310,19.0,42.0,50,0.00,,,0.00,0.800000,,2013-04-02 08:12:00,
2013-04-02 00:22:00,35.0,19.0,-100.00,NW,310,19.0,42.0,50,0.00,,,0.00,0.800000,,2013-04-02 08:22:00,
2013-04-02 00:52:00,35.0,17.0,-100.00,SSW,209,5.0,35.0,47,0.00,,,0.00,0.800000,,2013-04-02 08:52:00,
2013-04-02 01:02:00,35.0,17.0,-100.00,SSW,209,5.0,35.0,47,0.00,,,0.00,0.800000,,2013-04-02 09:02:00,
2013-04-02 01:12:00,35.0,17.0,-100.00,SSW,209,5.0,35.0,47,0.00,,,0.00,0.800000,,2013-04-02 09:12:00,
2013-04-02 01:22:00,35.0,17.0,-100.00,SSW,209,5.0,35.0,47,0.00,,,0.00,0.800000,,2013-04-02 09:22:00,
2013-04-02 01:52:00,35.0,17.0,-100.00,SSW,196,3.0,26.0,47,0.00,,,0.00,0.800000,,2013-04-02 09:52:00,
2013-04-02 02:03:00,35.0,17.0,-100.00,SSW,196,3.0,26.0,47,0.00,,,0.00,0.800000,,2013-04-02 10:03:00,
2013-04-02 02:13:00,35.0,17.0,-100.00,SSW,196,3.0,26.0,47,0.00,,,0.00,0.800000,,2013-04-02 10:13:00,
2013-04-02 02:23:00,35.0,17.0,-100.00,SSW,196,3.0,26.0,47,0.00,,,0.00,0.800000,,2013-04-02 10:23:00,
2013-04-02 02:52:00,33.0,18.0,-100.00,NW,315,4.0,11.0,52,0.00,,,0.00,0.800000,,2013-04-02 10:52:00,
2013-04-02 03:02:00,33.0,18.0,-100.00,NW,315,4.0,11.0,52,0.00,,,0.00,0.800000,,2013-04-02 11:02:00,
2013-04-02 03:12:00,33.0,18.0,-100.00,NW,315,4.0,11.0,52,0.00,,,0.00,0.800000,,2013-04-02 11:12:00,
2013-04-02 03:22:00,33.0,18.0,-100.00,NW,315,4.0,11.0,52,0.00,,,0.00,0.800000,,2013-04-02 11:22:00,
2013-04-02 03:52:00,34.0,18.0,-100.00,NNE,18,4.0,9.0,50,0.00,,,0.00,0.800000,,2013-04-02 11:52:00,
2013-04-02 04:02:00,34.0,18.0,-100.00,NNE,18,4.0,9.0,50,0.00,,,0.00,0.800000,,2013-04-02 12:02:00,
2013-04-02 04:11:00,34.0,18.0,-100.00,NNE,18,4.0,9.0,50,0.00,,,0.00,0.800000,,2013-04-02 12:11:00,
2013-04-02 04:22:00,34.0,18.0,-100.00,NNE,18,4.0,9.0,50,0.00,,,0.00,0.800000,,2013-04-02 12:22:00,
2013-04-02 04:52:00,33.0,19.0,-100.00,WSW,251,4.0,9.0,56,0.00,,,0.00,0.800000,,2013-04-02 12:52:00,
2013-04-02 05:01:00,33.0,19.0,-100.00,WSW,251,4.0,9.0,56,0.00,,,0.00,0.800000,,2013-04-02 13:01:00,
2013-04-02 05:12:00,33.0,19.0,-100.00,WSW,251,4.0,9.0,56,0.00,,,0.00,0.800000,,2013-04-02 13:12:00,
2013-04-02 05:22:00,33.0,19.0,-100.00,WSW,251,4.0,9.0,56,0.00,,,0.00,0.800000,,2013-04-02 13:22:00,
2013-04-02 05:52:00,33.0,18.0,-100.00,SSW,213,5.0,9.0,54,0.00,,,0.00,0.800000,,2013-04-02 13:52:00,
2013-04-02 06:02:00,33.0,18.0,-100.00,SSW,213,5.0,9.0,54,0.00,,,0.00,0.800000,,2013-04-02 14:02:00,
2013-04-02 06:12:00,33.0,18.0,-100.00,SSW,213,5.0,9.0,54,0.00,,,0.00,0.800000,,2013-04-02 14:12:00,
2013-04-02 06:22:00,33.0,18.0,-100.00,SSW,213,5.0,9.0,54,0.00,,,0.00,0.800000,,2013-04-02 14:22:00,
2013-04-02 06:52:00,32.0,19.0,-100.00,SW,216,3.0,8.0,57,0.00,,,0.00,0.800000,,2013-04-02 14:52:00,
2013-04-02 07:02:00,32.0,19.0,-100.00,SW,216,3.0,8.0,57,0.00,,,0.00,0.800000,,2013-04-02 15:02:00,
2013-04-02 07:11:00,32.0,19.0,-100.00,SW,216,3.0,8.0,57,0.00,,,0.00,0.800000,,2013-04-02 15:11:00,
2013-04-02 07:22:00,32.0,19.0,-100.00,SW,216,3.0,8.0,57,0.00,,,0.00,0.800000,,2013-04-02 15:22:00,
2013-04-02 07:57:00,32.0,19.0,-100.00,West,277,3.0,5.0,57,0.00,,,0.00,2.600000,,2013-04-02 15:57:00,
2013-04-02 08:03:00,32.0,19.0,-100.00,West,277,3.0,5.0,57,0.00,,,0.00,2.600000,,2013-04-02 16:03:00,
2013-04-02 08:13:00,32.0,19.0,-100.00,West,277,3.0,5.0,57,0.00,,,0.00,2.600000,,2013-04-02 16:13:00,
2013-04-02 08:23:00,32.0,19.0,-100.00,West,277,3.0,5.0,57,0.00,,,0.00,2.600000,,2013-04-02 16:23:00,
2013-04-02 08:53:00,34.0,19.0,-100.00,East,99,4.0,6.0,55,0.00,,,-99.99,58.299999,,2013-04-02 16:53:00,
2013-04-02 09:04:00,34.0,19.0,-100.00,East,99,4.0,6.0,55,0.00,,,-99.99,58.299999,,2013-04-02 17:04:00,
2013-04-02 09:12:00,34.0,19.0,-100.00,East,99,4.0,6.0,55,0.00,,,-99.99,58.299999,,2013-04-02 17:12:00,
2013-04-02 09:24:00,34.0,19.0,-100.00,East,99,4.0,6.0,55,0.00,,,-99.99,58.299999,,2013-04-02 17:24:00,
2013-04-02 09:55:00,37.0,20.0,-100.00,East,99,3.0,6.0,50,0.00,,,0.00,235.600006,,2013-04-02 17:55:00,
2013-04-02 10:12:00,37.0,20.0,-100.00,East,99,3.0,6.0,50,0.00,,,0.00,235.600006,,2013-04-02 18:12:00,
2013-04-02 10:22:00,37.0,20.0,-100.00,East,99,3.0,6.0,50,0.00,,,0.00,235.600006,,2013-04-02 18:22:00,
2013-04-02 10:55:00,40.0,20.0,-100.00,SSW,192,2.0,4.0,44,0.00,,,0.00,361.200012,,2013-04-02 18:55:00,
2013-04-02 11:55:00,45.0,23.0,-100.00,SE,134,0.0,2.0,41,0.00,,,0.00,483.500000,,2013-04-02 19:55:00,
2013-04-02 12:54:00,42.0,20.0,-100.00,SSW,209,2.0,3.0,40,-99.99,,,0.00,554.099976,,2013-04-02 20:54:00,
2013-04-02 13:03:00,42.0,20.0,-100.00,SSW,209,2.0,3.0,40,-99.99,,,0.00,554.099976,,2013-04-02 21:03:00,
2013-04-02 13:12:00,42.0,20.0,-100.00,SSW,209,2.0,3.0,40,-99.99,,,0.00,554.099976,,2013-04-02 21:12:00,
2013-04-02 13:22:00,42.0,20.0,-100.00,SSW,209,2.0,3.0,40,-99.99,,,0.00,554.099976,,2013-04-02 21:22:00,
2013-04-02 13:55:00,50.0,24.0,-100.00,SSW,208,1.0,4.0,35,0.00,,,0.00,646.000000,,2013-04-02 21:55:00,
2013-04-02 14:53:00,47.0,23.0,-100.00,SE,139,0.0,3.0,39,-99.99,,,0.00,547.799988,,2013-04-02 22:53:00,
2013-04-02 15:54:00,41.0,22.0,-100.00,WNW,292,2.0,5.0,45,-99.99,,,0.00,397.200012,,2013-04-02 23:54:00,
2013-04-02 16:03:00,41.0,22.0,-100.00,WNW,292,2.0,5.0,45,-99.99,,,0.00,397.200012,,2013-04-03 00:03:00,
2013-04-02 16:12:00,41.0,22.0,-100.00,WNW,292,2.0,5.0,45,-99.99,,,0.00,397.200012,,2013-04-03 00:12:00,
2013-04-02 16:22:00,41.0,22.0,-100.00,WNW,292,2.0,5.0,45,-99.99,,,0.00,397.200012,,2013-04-03 00:22:00,
2013-04-02 16:55:00,40.0,21.0,-100.00,NE,43,6.0,6.0,47,0.00,,,0.00,501.200012,,2013-04-03 00:55:00,
2013-04-02 17:03:00,40.0,21.0,-100.00,NE,43,6.0,6.0,47,0.00,,,0.00,501.200012,,2013-04-03 01:03:00,
2013-04-02 17:12:00,40.0,21.0,-100.00,NE,43,6.0,6.0,47,0.00,,,0.00,501.200012,,2013-04-03 01:12:00,
2013-04-02 17:21:00,40.0,21.0,-100.00,NE,43,6.0,6.0,47,0.00,,,0.00,501.200012,,2013-04-03 01:21:00,
2013-04-02 17:53:00,38.0,21.0,-100.00,ENE,70,3.0,8.0,50,0.00,,,0.00,229.000000,,2013-04-03 01:53:00,
2013-04-02 18:03:00,38.0,21.0,-100.00,ENE,70,3.0,8.0,50,0.00,,,0.00,229.000000,,2013-04-03 02:03:00,
2013-04-02 18:12:00,38.0,21.0,-100.00,ENE,70,3.0,8.0,50,0.00,,,0.00,229.000000,,2013-04-03 02:12:00,
2013-04-02 18:22:00,38.0,21.0,-100.00,ENE,70,3.0,8.0,50,0.00,,,0.00,229.000000,,2013-04-03 02:22:00,
2013-04-02 18:53:00,36.0,22.0,-100.00,West,281,3.0,4.0,55,0.00,,,0.00,182.500000,,2013-04-03 02:53:00,
2013-04-02 19:04:00,36.0,22.0,-100.00,West,281,3.0,4.0,55,0.00,,,0.00,182.500000,,2013-04-03 03:04:00,
2013-04-02 19:13:00,36.0,22.0,-100.00,West,281,3.0,4.0,55,0.00,,,0.00,182.500000,,2013-04-03 03:13:00,
2013-04-02 19:22:00,36.0,22.0,-100.00,West,281,3.0,4.0,55,0.00,,,0.00,182.500000,,2013-04-03 03:22:00,
2013-04-02 19:54:00,37.0,21.0,-100.00,West,273,0.0,4.0,53,0.00,,,0.00,69.000000,,2013-04-03 03:54:00,
2013-04-02 20:03:00,37.0,21.0,-100.00,West,273,0.0,4.0,53,0.00,,,0.00,69.000000,,2013-04-03 04:03:00,
2013-04-02 20:12:00,37.0,21.0,-100.00,West,273,0.0,4.0,53,0.00,,,0.00,69.000000,,2013-04-03 04:12:00,
2013-04-02 20:23:00,37.0,21.0,-100.00,West,273,0.0,4.0,53,0.00,,,0.00,69.000000,,2013-04-03 04:23:00,
2013-04-02 20:53:00,33.0,29.0,-100.00,WSW,241,8.0,8.0,85,0.00,,,0.00,28.500000,,2013-04-03 04:53:00,
2013-04-02 21:02:00,33.0,29.0,-100.00,WSW,241,8.0,8.0,85,0.00,,,0.00,28.500000,,2013-04-03 05:02:00,
2013-04-02 21:12:00,33.0,29.0,-100.00,WSW,241,8.0,8.0,85,0.00,,,0.00,28.500000,,2013-04-03 05:12:00,
2013-04-02 21:22:00,33.0,29.0,-100.00,WSW,241,8.0,8.0,85,0.00,,,0.00,28.500000,,2013-04-03 05:22:00,
2013-04-02 21:52:00,33.0,29.0,-100.00,NNE,21,5.0,15.0,84,0.00,,,0.00,2.600000,,2013-04-03 05:52:00,
2013-04-02 22:02:00,33.0,29.0,-100.00,NNE,21,5.0,15.0,84,0.00,,,0.00,2.600000,,2013-04-03 06:02:00,
2013-04-02 22:12:00,33.0,29.0,-100.00,NNE,21,5.0,15.0,84,0.00,,,0.00,2.600000,,2013-04-03 06:12:00,
2013-04-02 22:22:00,33.0,29.0,-100.00,NNE,21,5.0,15.0,84,0.00,,,0.00,2.600000,,2013-04-03 06:22:00,
2013-04-02 22:52:00,31.0,30.0,-100.00,West,278,5.0,11.0,96,0.00,,,0.00,0.800000,,2013-04-03 06:52:00,
2013-04-02 23:02:00,31.0,30.0,-100.00,West,278,5.0,11.0,96,0.00,,,0.00,0.800000,,2013-04-03 07:02:00,
2013-04-02 23:12:00,31.0,30.0,-100.00,West,278,5.0,11.0,96,0.00,,,0.00,0.800000,,2013-04-03 07:12:00,
2013-04-02 23:22:00,31.0,30.0,-100.00,West,278,5.0,11.0,96,0.00,,,0.00,0.800000,,2013-04-03 07:22:00,
2013-04-02 23:53:00,31.0,31.0,-100.00,WSW,258,4.0,7.0,98,0.00,,,0.00,0.800000,,2013-04-03 07:53:00,